This is the latest recevied weather packets stored in our database for station/object DG7YEO-13. If no packets are shown the sender has not sent any weather packets the latest 10 day(s).
| Time | Temp. | Humidity | Pressure | Rain* | Wind** | Luminosity | Snow |
|---|---|---|---|---|---|---|---|
| 1787933825 | 21.11° C | 85% | 1007.3 hPa | 3.56 mm | - | - | - |
| 1787932925 | 21.67° C | 81% | 1007.4 hPa | 3.56 mm | - | - | - |
| 1787932025 | 22.22° C | 72% | 1007.4 hPa | 0 mm | - | - | - |
| 1787931124 | 23.33° C | 67% | 1007.3 hPa | 0 mm | - | - | - |
| 1787930225 | 24.44° C | 64% | 1006.7 hPa | 0 mm | - | - | - |
| 1787929325 | 24.44° C | 64% | 1006.5 hPa | 0 mm | - | - | - |
| 1787928425 | 23.89° C | 66% | 1006.6 hPa | 0 mm | - | - | - |
| 1787927525 | 23.89° C | 70% | 1006.8 hPa | 0 mm | - | - | - |
| 1787926624 | 23.33° C | 73% | 1006.9 hPa | 0 mm | - | - | - |
| 1787925725 | 22.22° C | 78% | 1007 hPa | 0 mm | - | - | - |
| 1787924825 | 22.22° C | 78% | 1007.3 hPa | 0 mm | - | - | - |
| 1787923925 | 21.67° C | 80% | 1007.3 hPa | 0.25 mm | - | - | - |
| 1787923025 | 21.67° C | 81% | 1007.3 hPa | 0.25 mm | - | - | - |
| 1787922125 | 21.11° C | 86% | 1007.1 hPa | 0.25 mm | - | - | - |
| 1787921224 | 21.67° C | 86% | 1007.4 hPa | 0.25 mm | - | - | - |
| 1787920326 | 22.22° C | 87% | 1007.4 hPa | 0 mm | - | - | - |
| 1787919424 | 22.22° C | 88% | 1007.4 hPa | 0 mm | - | - | - |
| 1787918525 | 21.67° C | 90% | 1007.4 hPa | 0 mm | - | - | - |
| 1787917624 | 21.67° C | 92% | 1007.3 hPa | 0 mm | - | - | - |
| 1787916725 | 21.11° C | 93% | 1007.3 hPa | 0 mm | - | - | - |
| 1787915825 | 21.11° C | 94% | 1007 hPa | 0 mm | - | - | - |
| 1787914925 | 21.11° C | 94% | 1007.1 hPa | 0 mm | - | - | - |
| 1787914024 | 21.11° C | 95% | 1006.8 hPa | 0 mm | - | - | - |
| 1787913125 | 20.56° C | 95% | 1006.9 hPa | 0 mm | - | - | - |
| 1787912224 | 20.56° C | 95% | 1006.9 hPa | 0 mm | - | - | - |
* Rain latest hour (hover to see other rain measurements)
** Current wind speed in m/s (hover to see current wind gust speed)